KSAN/SAN METAR and TAF weather

Enter ICAO airport designator
Station Type Date Time Source
KSAN METAR 2021/01/16 02:51 UTC NOAA

KSAN 160251Z 00000KT 10SM FEW250 21/M01 A3003 RMK AO2 SLP169 T02061011 55001


Station Type Date Time Source
KSAN Decoded METAR 2021/01/16 02:51 UTC NOAA

SAN DIEGO INTERNATIONAL \LINDBERGH FLD, CA, United States (KSAN) 32-44N 117-11W 12M
Jan 15, 2021 - 09:51 PM EST / 2021.01.16 0251 UTC
Wind: Calm:0
Visibility: 10 mile(s):0
Sky conditions: mostly clear
Temperature: 69.1 F (20.6 C)
Dew Point: 30.0 F (-1.1 C)
Relative Humidity: 23%
Pressure (altimeter): 30.03 in. Hg (1016 hPa)
Pressure tendency: 0.00 inches (0.1 hPa) lower than three hours ago
ob: KSAN 160251Z 00000KT 10SM FEW250 21/M01 A3003 RMK AO2 SLP169 T02061011 55001
cycle: 3

Station Type Date Time Source
KSAN TAF 2021/01/16 03:03 UTC NOAA

TAF
AMD KSAN 160300Z 1603/1706 VRB03KT P6SM FEW250
FM162100 25008KT P6SM FEW250
FM170200 VRB03KT P6SM FEW250

Example: see airport list